sensor_id;sensor_type;location;lat;lon;timestamp;P1;durP1;ratioP1;P2;durP2;ratioP2
72517;SDS011;60540;51.178;6.738;2023-03-01T00:02:20;6.85;;;4.22;;
72517;SDS011;60540;51.178;6.738;2023-03-01T00:04:46;6.43;;;3.45;;
72517;SDS011;60540;51.178;6.738;2023-03-01T00:07:12;8.27;;;4.22;;
72517;SDS011;60540;51.178;6.738;2023-03-01T00:09:38;7.38;;;4.00;;
72517;SDS011;60540;51.178;6.738;2023-03-01T00:12:05;6.18;;;4.00;;
72517;SDS011;60540;51.178;6.738;2023-03-01T00:14:31;9.85;;;4.13;;
72517;SDS011;60540;51.178;6.738;2023-03-01T00:16:57;6.47;;;3.85;;
72517;SDS011;60540;51.178;6.738;2023-03-01T00:19:23;8.52;;;3.92;;
72517;SDS011;60540;51.178;6.738;2023-03-01T00:21:49;6.10;;;3.80;;
72517;SDS011;60540;51.178;6.738;2023-03-01T00:24:14;6.88;;;3.78;;
72517;SDS011;60540;51.178;6.738;2023-03-01T00:26:40;7.00;;;3.95;;
72517;SDS011;60540;51.178;6.738;2023-03-01T00:29:06;10.63;;;3.58;;
72517;SDS011;60540;51.178;6.738;2023-03-01T00:31:32;7.55;;;4.45;;
72517;SDS011;60540;51.178;6.738;2023-03-01T00:34:00;6.32;;;4.30;;
72517;SDS011;60540;51.178;6.738;2023-03-01T00:36:31;7.40;;;3.90;;
72517;SDS011;60540;51.178;6.738;2023-03-01T00:38:58;7.85;;;4.28;;
72517;SDS011;60540;51.178;6.738;2023-03-01T00:41:24;9.82;;;3.72;;
72517;SDS011;60540;51.178;6.738;2023-03-01T00:43:52;5.95;;;3.55;;
72517;SDS011;60540;51.178;6.738;2023-03-01T00:46:19;6.97;;;4.35;;
72517;SDS011;60540;51.178;6.738;2023-03-01T00:48:48;6.30;;;3.80;;
72517;SDS011;60540;51.178;6.738;2023-03-01T00:51:15;6.35;;;3.88;;
72517;SDS011;60540;51.178;6.738;2023-03-01T00:53:51;8.30;;;4.20;;
72517;SDS011;60540;51.178;6.738;2023-03-01T00:58:44;7.15;;;3.80;;
72517;SDS011;60540;51.178;6.738;2023-03-01T01:01:11;6.55;;;3.65;;
72517;SDS011;60540;51.178;6.738;2023-03-01T01:03:50;7.93;;;4.97;;
72517;SDS011;60540;51.178;6.738;2023-03-01T01:08:51;8.93;;;4.45;;
72517;SDS011;60540;51.178;6.738;2023-03-01T01:11:17;9.00;;;4.45;;
72517;SDS011;60540;51.178;6.738;2023-03-01T01:13:44;7.03;;;4.10;;
72517;SDS011;60540;51.178;6.738;2023-03-01T01:16:11;9.05;;;4.30;;
72517;SDS011;60540;51.178;6.738;2023-03-01T01:18:36;6.43;;;3.90;;
72517;SDS011;60540;51.178;6.738;2023-03-01T01:21:04;9.15;;;4.57;;
72517;SDS011;60540;51.178;6.738;2023-03-01T01:23:31;7.88;;;3.97;;
72517;SDS011;60540;51.178;6.738;2023-03-01T01:25:56;8.35;;;4.43;;
72517;SDS011;60540;51.178;6.738;2023-03-01T01:28:22;7.60;;;4.30;;
72517;SDS011;60540;51.178;6.738;2023-03-01T01:30:48;8.63;;;4.63;;
72517;SDS011;60540;51.178;6.738;2023-03-01T01:33:13;7.70;;;4.05;;
72517;SDS011;60540;51.178;6.738;2023-03-01T01:35:39;7.68;;;4.57;;
72517;SDS011;60540;51.178;6.738;2023-03-01T01:38:05;8.93;;;4.57;;
72517;SDS011;60540;51.178;6.738;2023-03-01T01:40:30;7.55;;;3.80;;
72517;SDS011;60540;51.178;6.738;2023-03-01T01:42:56;7.30;;;4.55;;
72517;SDS011;60540;51.178;6.738;2023-03-01T01:45:34;8.10;;;4.70;;
72517;SDS011;60540;51.178;6.738;2023-03-01T01:48:04;7.68;;;4.32;;
72517;SDS011;60540;51.178;6.738;2023-03-01T01:50:36;6.65;;;3.95;;
72517;SDS011;60540;51.178;6.738;2023-03-01T01:53:05;7.90;;;4.20;;
72517;SDS011;60540;51.178;6.738;2023-03-01T01:55:35;7.65;;;3.97;;
72517;SDS011;60540;51.178;6.738;2023-03-01T02:00:28;8.23;;;5.05;;
72517;SDS011;60540;51.178;6.738;2023-03-01T02:02:55;7.65;;;4.10;;
72517;SDS011;60540;51.178;6.738;2023-03-01T02:05:25;8.65;;;4.60;;
72517;SDS011;60540;51.178;6.738;2023-03-01T02:07:52;7.22;;;3.97;;
72517;SDS011;60540;51.178;6.738;2023-03-01T02:10:18;8.75;;;4.32;;
72517;SDS011;60540;51.178;6.738;2023-03-01T02:12:44;8.18;;;4.70;;
72517;SDS011;60540;51.178;6.738;2023-03-01T02:15:10;9.07;;;4.82;;
72517;SDS011;60540;51.178;6.738;2023-03-01T02:17:35;9.68;;;5.35;;
72517;SDS011;60540;51.178;6.738;2023-03-01T02:22:35;8.10;;;4.18;;
72517;SDS011;60540;51.178;6.738;2023-03-01T02:30:34;8.57;;;3.88;;
72517;SDS011;60540;51.178;6.738;2023-03-01T02:33:00;7.68;;;4.15;;
72517;SDS011;60540;51.178;6.738;2023-03-01T02:35:31;6.97;;;4.45;;
72517;SDS011;60540;51.178;6.738;2023-03-01T02:37:59;9.32;;;4.07;;
72517;SDS011;60540;51.178;6.738;2023-03-01T02:40:28;8.07;;;4.22;;
72517;SDS011;60540;51.178;6.738;2023-03-01T02:42:56;7.75;;;4.50;;
72517;SDS011;60540;51.178;6.738;2023-03-01T02:45:24;9.52;;;4.55;;
72517;SDS011;60540;51.178;6.738;2023-03-01T02:47:50;8.82;;;4.32;;
72517;SDS011;60540;51.178;6.738;2023-03-01T02:52:57;7.25;;;4.50;;
72517;SDS011;60540;51.178;6.738;2023-03-01T02:55:31;9.15;;;5.10;;
72517;SDS011;60540;51.178;6.738;2023-03-01T02:57:57;9.50;;;4.88;;
72517;SDS011;60540;51.178;6.738;2023-03-01T03:00:24;9.18;;;4.57;;
72517;SDS011;60540;51.178;6.738;2023-03-01T03:02:54;12.00;;;5.22;;
72517;SDS011;60540;51.178;6.738;2023-03-01T03:05:23;9.15;;;4.57;;
72517;SDS011;60540;51.178;6.738;2023-03-01T03:07:50;8.20;;;4.88;;
72517;SDS011;60540;51.178;6.738;2023-03-01T03:10:21;9.82;;;5.15;;
72517;SDS011;60540;51.178;6.738;2023-03-01T03:12:59;9.93;;;4.95;;
72517;SDS011;60540;51.178;6.738;2023-03-01T03:15:29;9.45;;;4.95;;
72517;SDS011;60540;51.178;6.738;2023-03-01T03:17:55;8.77;;;4.88;;
72517;SDS011;60540;51.178;6.738;2023-03-01T03:20:23;8.15;;;4.88;;
72517;SDS011;60540;51.178;6.738;2023-03-01T03:22:51;8.07;;;4.75;;
72517;SDS011;60540;51.178;6.738;2023-03-01T03:25:18;8.20;;;4.97;;
72517;SDS011;60540;51.178;6.738;2023-03-01T03:27:45;9.13;;;5.47;;
72517;SDS011;60540;51.178;6.738;2023-03-01T03:32:42;8.32;;;5.35;;
72517;SDS011;60540;51.178;6.738;2023-03-01T03:35:21;9.75;;;5.15;;
72517;SDS011;60540;51.178;6.738;2023-03-01T03:37:49;8.25;;;4.60;;
72517;SDS011;60540;51.178;6.738;2023-03-01T03:40:30;9.30;;;4.95;;
72517;SDS011;60540;51.178;6.738;2023-03-01T03:43:03;8.85;;;5.07;;
72517;SDS011;60540;51.178;6.738;2023-03-01T03:45:30;7.68;;;4.40;;
72517;SDS011;60540;51.178;6.738;2023-03-01T03:47:58;10.25;;;5.30;;
72517;SDS011;60540;51.178;6.738;2023-03-01T03:50:24;9.38;;;5.35;;
72517;SDS011;60540;51.178;6.738;2023-03-01T03:52:50;9.85;;;5.22;;
72517;SDS011;60540;51.178;6.738;2023-03-01T03:55:16;9.20;;;4.93;;
72517;SDS011;60540;51.178;6.738;2023-03-01T03:57:45;8.23;;;4.93;;
72517;SDS011;60540;51.178;6.738;2023-03-01T04:00:17;7.90;;;4.50;;
72517;SDS011;60540;51.178;6.738;2023-03-01T04:02:45;12.57;;;5.30;;
72517;SDS011;60540;51.178;6.738;2023-03-01T04:05:12;10.32;;;5.57;;
72517;SDS011;60540;51.178;6.738;2023-03-01T04:07:39;8.48;;;5.22;;
72517;SDS011;60540;51.178;6.738;2023-03-01T04:10:06;10.32;;;5.18;;
72517;SDS011;60540;51.178;6.738;2023-03-01T04:12:34;9.77;;;5.20;;
72517;SDS011;60540;51.178;6.738;2023-03-01T04:15:01;10.00;;;5.50;;
72517;SDS011;60540;51.178;6.738;2023-03-01T04:17:28;9.23;;;5.10;;
72517;SDS011;60540;51.178;6.738;2023-03-01T04:19:54;10.60;;;5.32;;
72517;SDS011;60540;51.178;6.738;2023-03-01T04:22:20;10.30;;;4.65;;
72517;SDS011;60540;51.178;6.738;2023-03-01T04:24:45;11.75;;;5.65;;
72517;SDS011;60540;51.178;6.738;2023-03-01T04:27:11;8.27;;;4.72;;
72517;SDS011;60540;51.178;6.738;2023-03-01T04:29:37;8.60;;;5.47;;
72517;SDS011;60540;51.178;6.738;2023-03-01T04:32:02;8.57;;;5.00;;
72517;SDS011;60540;51.178;6.738;2023-03-01T04:34:29;8.63;;;5.13;;
72517;SDS011;60540;51.178;6.738;2023-03-01T04:36:55;10.38;;;5.43;;
72517;SDS011;60540;51.178;6.738;2023-03-01T04:39:21;9.45;;;5.28;;
72517;SDS011;60540;51.178;6.738;2023-03-01T04:41:47;10.57;;;5.50;;
72517;SDS011;60540;51.178;6.738;2023-03-01T04:44:13;8.40;;;5.07;;
72517;SDS011;60540;51.178;6.738;2023-03-01T04:46:38;8.27;;;4.90;;
72517;SDS011;60540;51.178;6.738;2023-03-01T04:49:04;11.57;;;5.15;;
72517;SDS011;60540;51.178;6.738;2023-03-01T04:51:30;11.88;;;5.68;;
72517;SDS011;60540;51.178;6.738;2023-03-01T04:53:58;9.88;;;6.65;;
72517;SDS011;60540;51.178;6.738;2023-03-01T04:56:23;11.82;;;5.60;;
72517;SDS011;60540;51.178;6.738;2023-03-01T04:58:49;8.38;;;5.30;;
72517;SDS011;60540;51.178;6.738;2023-03-01T05:01:19;9.82;;;5.43;;
72517;SDS011;60540;51.178;6.738;2023-03-01T05:03:49;10.40;;;5.00;;
72517;SDS011;60540;51.178;6.738;2023-03-01T05:06:16;9.23;;;4.88;;
72517;SDS011;60540;51.178;6.738;2023-03-01T05:08:43;8.88;;;5.15;;
72517;SDS011;60540;51.178;6.738;2023-03-01T05:11:09;8.80;;;5.40;;
72517;SDS011;60540;51.178;6.738;2023-03-01T05:13:36;7.90;;;4.85;;
72517;SDS011;60540;51.178;6.738;2023-03-01T05:16:03;11.10;;;5.68;;
72517;SDS011;60540;51.178;6.738;2023-03-01T05:21:04;9.32;;;4.85;;
72517;SDS011;60540;51.178;6.738;2023-03-01T05:23:32;12.10;;;5.50;;
72517;SDS011;60540;51.178;6.738;2023-03-01T05:25:59;8.52;;;5.57;;
72517;SDS011;60540;51.178;6.738;2023-03-01T05:28:25;10.95;;;5.30;;
72517;SDS011;60540;51.178;6.738;2023-03-01T05:30:53;8.93;;;5.07;;
72517;SDS011;60540;51.178;6.738;2023-03-01T05:33:19;9.05;;;5.10;;
72517;SDS011;60540;51.178;6.738;2023-03-01T05:35:47;8.23;;;4.88;;
72517;SDS011;60540;51.178;6.738;2023-03-01T05:38:14;8.57;;;5.18;;
72517;SDS011;60540;51.178;6.738;2023-03-01T05:40:41;9.43;;;5.60;;
72517;SDS011;60540;51.178;6.738;2023-03-01T05:43:09;8.38;;;5.18;;
72517;SDS011;60540;51.178;6.738;2023-03-01T05:45:36;10.18;;;5.20;;
72517;SDS011;60540;51.178;6.738;2023-03-01T05:48:03;8.82;;;6.18;;
72517;SDS011;60540;51.178;6.738;2023-03-01T05:50:32;10.50;;;5.72;;
72517;SDS011;60540;51.178;6.738;2023-03-01T05:53:03;11.52;;;5.55;;
72517;SDS011;60540;51.178;6.738;2023-03-01T05:55:33;8.82;;;4.93;;
72517;SDS011;60540;51.178;6.738;2023-03-01T05:58:00;9.20;;;5.43;;
72517;SDS011;60540;51.178;6.738;2023-03-01T06:00:26;8.68;;;5.35;;
72517;SDS011;60540;51.178;6.738;2023-03-01T06:02:53;11.02;;;5.78;;
72517;SDS011;60540;51.178;6.738;2023-03-01T06:05:19;15.48;;;5.70;;
72517;SDS011;60540;51.178;6.738;2023-03-01T06:07:46;10.43;;;5.20;;
72517;SDS011;60540;51.178;6.738;2023-03-01T06:10:11;12.35;;;5.95;;
72517;SDS011;60540;51.178;6.738;2023-03-01T06:12:39;12.98;;;6.07;;
72517;SDS011;60540;51.178;6.738;2023-03-01T06:15:05;11.40;;;5.43;;
72517;SDS011;60540;51.178;6.738;2023-03-01T06:17:32;11.23;;;5.72;;
72517;SDS011;60540;51.178;6.738;2023-03-01T06:20:06;11.43;;;5.57;;
72517;SDS011;60540;51.178;6.738;2023-03-01T06:22:40;11.25;;;5.72;;
72517;SDS011;60540;51.178;6.738;2023-03-01T06:25:07;14.30;;;5.15;;
72517;SDS011;60540;51.178;6.738;2023-03-01T06:27:33;9.75;;;5.18;;
72517;SDS011;60540;51.178;6.738;2023-03-01T06:29:59;9.90;;;5.38;;
72517;SDS011;60540;51.178;6.738;2023-03-01T06:32:24;9.77;;;5.82;;
72517;SDS011;60540;51.178;6.738;2023-03-01T06:34:50;11.48;;;5.57;;
72517;SDS011;60540;51.178;6.738;2023-03-01T06:37:16;15.10;;;5.97;;
72517;SDS011;60540;51.178;6.738;2023-03-01T06:39:41;13.55;;;5.68;;
72517;SDS011;60540;51.178;6.738;2023-03-01T06:42:08;12.18;;;5.80;;
72517;SDS011;60540;51.178;6.738;2023-03-01T06:44:35;14.85;;;5.70;;
72517;SDS011;60540;51.178;6.738;2023-03-01T06:47:01;10.90;;;5.85;;
72517;SDS011;60540;51.178;6.738;2023-03-01T06:49:28;15.20;;;6.32;;
72517;SDS011;60540;51.178;6.738;2023-03-01T06:51:54;11.07;;;5.35;;
72517;SDS011;60540;51.178;6.738;2023-03-01T06:54:19;12.18;;;5.47;;
72517;SDS011;60540;51.178;6.738;2023-03-01T06:56:48;11.52;;;5.75;;
72517;SDS011;60540;51.178;6.738;2023-03-01T06:59:14;10.50;;;6.00;;
72517;SDS011;60540;51.178;6.738;2023-03-01T07:01:41;11.55;;;6.70;;
72517;SDS011;60540;51.178;6.738;2023-03-01T07:04:06;10.88;;;5.38;;
72517;SDS011;60540;51.178;6.738;2023-03-01T07:06:32;12.07;;;5.78;;
72517;SDS011;60540;51.178;6.738;2023-03-01T07:08:58;10.40;;;5.85;;
72517;SDS011;60540;51.178;6.738;2023-03-01T07:11:24;12.07;;;5.88;;
72517;SDS011;60540;51.178;6.738;2023-03-01T07:13:49;12.73;;;6.00;;
72517;SDS011;60540;51.178;6.738;2023-03-01T07:16:15;10.32;;;6.28;;
72517;SDS011;60540;51.178;6.738;2023-03-01T07:18:41;14.07;;;6.15;;
72517;SDS011;60540;51.178;6.738;2023-03-01T07:21:07;10.20;;;5.20;;
72517;SDS011;60540;51.178;6.738;2023-03-01T07:23:33;10.73;;;5.65;;
72517;SDS011;60540;51.178;6.738;2023-03-01T07:25:59;13.77;;;6.55;;
72517;SDS011;60540;51.178;6.738;2023-03-01T07:28:25;12.43;;;6.55;;
72517;SDS011;60540;51.178;6.738;2023-03-01T07:30:51;12.45;;;6.30;;
72517;SDS011;60540;51.178;6.738;2023-03-01T07:33:17;11.45;;;6.15;;
72517;SDS011;60540;51.178;6.738;2023-03-01T07:35:43;10.93;;;6.45;;
72517;SDS011;60540;51.178;6.738;2023-03-01T07:38:08;10.38;;;5.57;;
72517;SDS011;60540;51.178;6.738;2023-03-01T07:40:34;12.63;;;5.38;;
72517;SDS011;60540;51.178;6.738;2023-03-01T07:43:00;13.77;;;6.68;;
72517;SDS011;60540;51.178;6.738;2023-03-01T07:45:27;13.02;;;5.57;;
72517;SDS011;60540;51.178;6.738;2023-03-01T07:47:53;9.93;;;5.20;;
72517;SDS011;60540;51.178;6.738;2023-03-01T07:50:20;11.35;;;6.25;;
72517;SDS011;60540;51.178;6.738;2023-03-01T07:52:46;16.75;;;6.32;;
72517;SDS011;60540;51.178;6.738;2023-03-01T07:55:12;11.20;;;5.38;;
72517;SDS011;60540;51.178;6.738;2023-03-01T07:57:38;10.25;;;5.70;;
72517;SDS011;60540;51.178;6.738;2023-03-01T08:00:04;13.05;;;5.57;;
72517;SDS011;60540;51.178;6.738;2023-03-01T08:02:31;13.77;;;6.35;;
72517;SDS011;60540;51.178;6.738;2023-03-01T08:04:57;11.93;;;6.18;;
72517;SDS011;60540;51.178;6.738;2023-03-01T08:07:22;10.95;;;6.82;;
72517;SDS011;60540;51.178;6.738;2023-03-01T08:09:48;12.80;;;5.78;;
72517;SDS011;60540;51.178;6.738;2023-03-01T08:12:14;10.93;;;5.55;;
72517;SDS011;60540;51.178;6.738;2023-03-01T08:14:41;10.45;;;5.97;;
72517;SDS011;60540;51.178;6.738;2023-03-01T08:17:07;11.88;;;6.63;;
72517;SDS011;60540;51.178;6.738;2023-03-01T08:19:33;10.38;;;5.78;;
72517;SDS011;60540;51.178;6.738;2023-03-01T08:22:01;9.85;;;5.85;;
72517;SDS011;60540;51.178;6.738;2023-03-01T08:24:28;10.18;;;5.65;;
72517;SDS011;60540;51.178;6.738;2023-03-01T08:26:54;14.93;;;6.85;;
72517;SDS011;60540;51.178;6.738;2023-03-01T08:29:20;13.10;;;5.95;;
72517;SDS011;60540;51.178;6.738;2023-03-01T08:31:46;12.90;;;6.63;;
72517;SDS011;60540;51.178;6.738;2023-03-01T08:34:13;11.32;;;6.38;;
72517;SDS011;60540;51.178;6.738;2023-03-01T08:36:40;11.15;;;7.57;;
72517;SDS011;60540;51.178;6.738;2023-03-01T08:39:09;13.05;;;6.10;;
72517;SDS011;60540;51.178;6.738;2023-03-01T08:41:35;13.85;;;6.97;;
72517;SDS011;60540;51.178;6.738;2023-03-01T08:44:02;12.27;;;5.88;;
72517;SDS011;60540;51.178;6.738;2023-03-01T08:46:28;13.63;;;6.65;;
72517;SDS011;60540;51.178;6.738;2023-03-01T08:48:55;9.95;;;5.75;;
72517;SDS011;60540;51.178;6.738;2023-03-01T08:51:21;12.63;;;6.05;;
72517;SDS011;60540;51.178;6.738;2023-03-01T08:53:48;12.82;;;7.25;;
72517;SDS011;60540;51.178;6.738;2023-03-01T08:56:14;17.45;;;7.25;;
72517;SDS011;60540;51.178;6.738;2023-03-01T08:58:42;11.70;;;6.10;;
72517;SDS011;60540;51.178;6.738;2023-03-01T09:01:09;12.57;;;6.28;;
72517;SDS011;60540;51.178;6.738;2023-03-01T09:03:36;12.60;;;6.22;;
72517;SDS011;60540;51.178;6.738;2023-03-01T09:06:02;12.13;;;6.28;;
72517;SDS011;60540;51.178;6.738;2023-03-01T09:08:29;12.45;;;6.47;;
72517;SDS011;60540;51.178;6.738;2023-03-01T09:10:55;13.82;;;6.38;;
72517;SDS011;60540;51.178;6.738;2023-03-01T09:13:21;13.25;;;5.72;;
72517;SDS011;60540;51.178;6.738;2023-03-01T09:15:50;10.90;;;6.03;;
72517;SDS011;60540;51.178;6.738;2023-03-01T09:18:16;11.98;;;5.75;;
72517;SDS011;60540;51.178;6.738;2023-03-01T09:20:41;11.82;;;5.72;;
72517;SDS011;60540;51.178;6.738;2023-03-01T09:23:07;12.32;;;6.45;;
72517;SDS011;60540;51.178;6.738;2023-03-01T09:25:34;11.32;;;6.20;;
72517;SDS011;60540;51.178;6.738;2023-03-01T09:28:00;9.27;;;5.35;;
72517;SDS011;60540;51.178;6.738;2023-03-01T09:30:26;11.82;;;5.65;;
72517;SDS011;60540;51.178;6.738;2023-03-01T09:32:51;11.18;;;6.10;;
72517;SDS011;60540;51.178;6.738;2023-03-01T09:35:17;13.23;;;5.90;;
72517;SDS011;60540;51.178;6.738;2023-03-01T09:37:45;9.32;;;5.20;;
72517;SDS011;60540;51.178;6.738;2023-03-01T09:40:12;12.18;;;6.47;;
72517;SDS011;60540;51.178;6.738;2023-03-01T09:45:41;13.40;;;5.38;;
72517;SDS011;60540;51.178;6.738;2023-03-01T09:48:14;13.02;;;6.10;;
72517;SDS011;60540;51.178;6.738;2023-03-01T09:50:42;12.75;;;6.45;;
72517;SDS011;60540;51.178;6.738;2023-03-01T09:53:17;11.23;;;6.22;;
72517;SDS011;60540;51.178;6.738;2023-03-01T09:55:57;9.55;;;5.65;;
72517;SDS011;60540;51.178;6.738;2023-03-01T10:09:36;9.50;;;5.00;;
72517;SDS011;60540;51.178;6.738;2023-03-01T10:12:04;9.85;;;5.30;;
72517;SDS011;60540;51.178;6.738;2023-03-01T10:14:35;9.55;;;5.32;;
72517;SDS011;60540;51.178;6.738;2023-03-01T10:19:45;12.68;;;5.78;;
72517;SDS011;60540;51.178;6.738;2023-03-01T10:22:16;9.70;;;4.88;;
72517;SDS011;60540;51.178;6.738;2023-03-01T10:24:49;9.73;;;5.95;;
72517;SDS011;60540;51.178;6.738;2023-03-01T10:27:26;13.32;;;6.75;;
72517;SDS011;60540;51.178;6.738;2023-03-01T10:32:45;9.00;;;5.65;;
72517;SDS011;60540;51.178;6.738;2023-03-01T10:35:15;11.93;;;5.82;;
72517;SDS011;60540;51.178;6.738;2023-03-01T10:37:56;10.68;;;5.80;;
72517;SDS011;60540;51.178;6.738;2023-03-01T10:40:32;11.18;;;5.50;;
72517;SDS011;60540;51.178;6.738;2023-03-01T10:43:00;10.13;;;5.35;;
72517;SDS011;60540;51.178;6.738;2023-03-01T10:45:33;10.40;;;5.32;;
72517;SDS011;60540;51.178;6.738;2023-03-01T10:50:47;10.93;;;5.90;;
72517;SDS011;60540;51.178;6.738;2023-03-01T10:53:28;10.50;;;5.63;;
72517;SDS011;60540;51.178;6.738;2023-03-01T10:55:57;11.40;;;5.70;;
72517;SDS011;60540;51.178;6.738;2023-03-01T10:58:26;8.70;;;5.03;;
72517;SDS011;60540;51.178;6.738;2023-03-01T11:08:39;9.68;;;5.57;;
72517;SDS011;60540;51.178;6.738;2023-03-01T11:11:14;9.90;;;5.18;;
72517;SDS011;60540;51.178;6.738;2023-03-01T11:16:26;9.80;;;5.70;;
72517;SDS011;60540;51.178;6.738;2023-03-01T11:21:34;9.98;;;5.63;;
72517;SDS011;60540;51.178;6.738;2023-03-01T11:24:02;10.10;;;6.25;;
72517;SDS011;60540;51.178;6.738;2023-03-01T11:26:30;9.18;;;5.65;;
72517;SDS011;60540;51.178;6.738;2023-03-01T11:28:58;10.70;;;5.80;;
72517;SDS011;60540;51.178;6.738;2023-03-01T11:31:26;10.70;;;5.65;;
72517;SDS011;60540;51.178;6.738;2023-03-01T11:33:57;9.68;;;6.32;;
72517;SDS011;60540;51.178;6.738;2023-03-01T11:36:32;11.95;;;5.32;;
72517;SDS011;60540;51.178;6.738;2023-03-01T11:44:59;9.10;;;5.47;;
72517;SDS011;60540;51.178;6.738;2023-03-01T11:53:07;11.10;;;6.55;;
72517;SDS011;60540;51.178;6.738;2023-03-01T11:58:50;13.75;;;5.70;;
72517;SDS011;60540;51.178;6.738;2023-03-01T12:07:07;8.23;;;5.10;;
72517;SDS011;60540;51.178;6.738;2023-03-01T12:09:54;11.43;;;6.35;;
72517;SDS011;60540;51.178;6.738;2023-03-01T12:12:42;10.88;;;5.93;;
72517;SDS011;60540;51.178;6.738;2023-03-01T12:23:57;10.23;;;5.40;;
72517;SDS011;60540;51.178;6.738;2023-03-01T12:26:49;8.73;;;5.20;;
72517;SDS011;60540;51.178;6.738;2023-03-01T12:32:22;9.32;;;5.80;;
72517;SDS011;60540;51.178;6.738;2023-03-01T12:35:06;10.48;;;5.30;;
72517;SDS011;60540;51.178;6.738;2023-03-01T12:37:48;10.07;;;5.35;;
72517;SDS011;60540;51.178;6.738;2023-03-01T12:40:30;9.43;;;5.72;;
72517;SDS011;60540;51.178;6.738;2023-03-01T12:43:20;9.80;;;5.25;;
72517;SDS011;60540;51.178;6.738;2023-03-01T12:49:12;10.57;;;5.28;;
72517;SDS011;60540;51.178;6.738;2023-03-01T12:51:40;11.10;;;5.93;;
72517;SDS011;60540;51.178;6.738;2023-03-01T12:54:25;8.82;;;5.10;;
72517;SDS011;60540;51.178;6.738;2023-03-01T12:59:59;7.78;;;4.63;;
72517;SDS011;60540;51.178;6.738;2023-03-01T13:08:03;9.00;;;4.97;;
72517;SDS011;60540;51.178;6.738;2023-03-01T13:10:43;8.23;;;5.38;;
72517;SDS011;60540;51.178;6.738;2023-03-01T13:15:42;7.95;;;4.72;;
72517;SDS011;60540;51.178;6.738;2023-03-01T13:20:48;8.90;;;4.63;;
72517;SDS011;60540;51.178;6.738;2023-03-01T13:26:03;8.68;;;4.38;;
72517;SDS011;60540;51.178;6.738;2023-03-01T13:33:56;7.72;;;4.30;;
72517;SDS011;60540;51.178;6.738;2023-03-01T13:46:45;8.13;;;4.85;;
72517;SDS011;60540;51.178;6.738;2023-03-01T13:49:13;7.88;;;4.90;;
72517;SDS011;60540;51.178;6.738;2023-03-01T13:51:40;8.23;;;4.50;;
72517;SDS011;60540;51.178;6.738;2023-03-01T13:54:09;7.10;;;4.32;;
72517;SDS011;60540;51.178;6.738;2023-03-01T13:56:37;7.70;;;4.53;;
72517;SDS011;60540;51.178;6.738;2023-03-01T13:59:12;7.47;;;4.43;;
72517;SDS011;60540;51.178;6.738;2023-03-01T14:01:39;8.40;;;4.35;;
72517;SDS011;60540;51.178;6.738;2023-03-01T14:04:20;9.18;;;4.68;;
72517;SDS011;60540;51.178;6.738;2023-03-01T14:06:48;7.75;;;4.57;;
72517;SDS011;60540;51.178;6.738;2023-03-01T14:09:21;7.32;;;4.32;;
72517;SDS011;60540;51.178;6.738;2023-03-01T14:14:36;8.65;;;4.22;;
72517;SDS011;60540;51.178;6.738;2023-03-01T14:17:10;8.48;;;4.38;;
72517;SDS011;60540;51.178;6.738;2023-03-01T14:19:41;8.23;;;4.80;;
72517;SDS011;60540;51.178;6.738;2023-03-01T14:24:37;9.95;;;4.68;;
72517;SDS011;60540;51.178;6.738;2023-03-01T14:27:09;7.57;;;4.00;;
72517;SDS011;60540;51.178;6.738;2023-03-01T14:29:38;7.95;;;4.97;;
72517;SDS011;60540;51.178;6.738;2023-03-01T14:32:12;8.02;;;4.63;;
72517;SDS011;60540;51.178;6.738;2023-03-01T14:34:42;7.05;;;3.88;;
72517;SDS011;60540;51.178;6.738;2023-03-01T14:37:18;8.43;;;5.05;;
72517;SDS011;60540;51.178;6.738;2023-03-01T14:39:44;8.68;;;4.47;;
72517;SDS011;60540;51.178;6.738;2023-03-01T14:42:11;7.43;;;4.55;;
72517;SDS011;60540;51.178;6.738;2023-03-01T14:44:37;6.53;;;4.28;;
72517;SDS011;60540;51.178;6.738;2023-03-01T14:47:03;7.68;;;4.60;;
72517;SDS011;60540;51.178;6.738;2023-03-01T14:49:30;9.88;;;4.80;;
72517;SDS011;60540;51.178;6.738;2023-03-01T14:57:05;9.52;;;4.85;;
72517;SDS011;60540;51.178;6.738;2023-03-01T14:59:33;8.73;;;4.88;;
72517;SDS011;60540;51.178;6.738;2023-03-01T15:02:00;6.97;;;4.32;;
72517;SDS011;60540;51.178;6.738;2023-03-01T15:04:25;9.15;;;4.97;;
72517;SDS011;60540;51.178;6.738;2023-03-01T15:06:52;10.07;;;4.95;;
72517;SDS011;60540;51.178;6.738;2023-03-01T15:09:20;9.18;;;4.65;;
72517;SDS011;60540;51.178;6.738;2023-03-01T15:14:28;7.78;;;4.20;;
72517;SDS011;60540;51.178;6.738;2023-03-01T15:17:14;8.18;;;4.25;;
72517;SDS011;60540;51.178;6.738;2023-03-01T15:19:48;7.97;;;4.47;;
72517;SDS011;60540;51.178;6.738;2023-03-01T15:22:17;8.35;;;4.45;;
72517;SDS011;60540;51.178;6.738;2023-03-01T15:24:46;8.13;;;4.72;;
72517;SDS011;60540;51.178;6.738;2023-03-01T15:27:17;9.98;;;4.47;;
72517;SDS011;60540;51.178;6.738;2023-03-01T15:29:48;7.63;;;4.35;;
72517;SDS011;60540;51.178;6.738;2023-03-01T15:34:54;8.02;;;4.63;;
72517;SDS011;60540;51.178;6.738;2023-03-01T15:40:20;7.70;;;4.70;;
72517;SDS011;60540;51.178;6.738;2023-03-01T15:43:00;7.50;;;3.83;;
72517;SDS011;60540;51.178;6.738;2023-03-01T15:45:27;9.50;;;5.03;;
72517;SDS011;60540;51.178;6.738;2023-03-01T15:47:57;7.60;;;4.15;;
72517;SDS011;60540;51.178;6.738;2023-03-01T15:52:54;8.52;;;4.60;;
72517;SDS011;60540;51.178;6.738;2023-03-01T15:55:24;8.35;;;4.47;;
72517;SDS011;60540;51.178;6.738;2023-03-01T15:58:12;6.43;;;3.97;;
72517;SDS011;60540;51.178;6.738;2023-03-01T16:00:38;7.07;;;4.38;;
72517;SDS011;60540;51.178;6.738;2023-03-01T16:03:05;7.75;;;4.47;;
72517;SDS011;60540;51.178;6.738;2023-03-01T16:05:33;8.10;;;4.00;;
72517;SDS011;60540;51.178;6.738;2023-03-01T16:08:02;7.32;;;3.75;;
72517;SDS011;60540;51.178;6.738;2023-03-01T16:10:29;10.35;;;4.55;;
72517;SDS011;60540;51.178;6.738;2023-03-01T16:12:55;9.70;;;4.68;;
72517;SDS011;60540;51.178;6.738;2023-03-01T16:15:22;6.88;;;4.13;;
72517;SDS011;60540;51.178;6.738;2023-03-01T16:17:49;7.93;;;4.25;;
72517;SDS011;60540;51.178;6.738;2023-03-01T16:20:15;8.48;;;4.03;;
72517;SDS011;60540;51.178;6.738;2023-03-01T16:22:42;7.65;;;3.85;;
72517;SDS011;60540;51.178;6.738;2023-03-01T16:25:12;7.57;;;3.78;;
72517;SDS011;60540;51.178;6.738;2023-03-01T16:27:44;8.15;;;4.03;;
72517;SDS011;60540;51.178;6.738;2023-03-01T16:30:11;7.32;;;3.88;;
72517;SDS011;60540;51.178;6.738;2023-03-01T16:32:40;8.23;;;4.38;;
72517;SDS011;60540;51.178;6.738;2023-03-01T16:35:09;8.65;;;3.83;;
72517;SDS011;60540;51.178;6.738;2023-03-01T16:37:36;7.65;;;4.20;;
72517;SDS011;60540;51.178;6.738;2023-03-01T16:40:02;7.20;;;3.90;;
72517;SDS011;60540;51.178;6.738;2023-03-01T16:42:35;6.32;;;3.63;;
72517;SDS011;60540;51.178;6.738;2023-03-01T16:45:02;8.20;;;3.72;;
72517;SDS011;60540;51.178;6.738;2023-03-01T16:49:54;7.07;;;3.83;;
72517;SDS011;60540;51.178;6.738;2023-03-01T16:52:20;6.28;;;3.45;;
72517;SDS011;60540;51.178;6.738;2023-03-01T16:54:47;7.20;;;3.50;;
72517;SDS011;60540;51.178;6.738;2023-03-01T16:57:13;6.07;;;3.35;;
72517;SDS011;60540;51.178;6.738;2023-03-01T16:59:38;8.88;;;4.53;;
72517;SDS011;60540;51.178;6.738;2023-03-01T17:02:04;9.48;;;4.00;;
72517;SDS011;60540;51.178;6.738;2023-03-01T17:04:35;6.13;;;3.80;;
72517;SDS011;60540;51.178;6.738;2023-03-01T17:07:00;7.32;;;4.15;;
72517;SDS011;60540;51.178;6.738;2023-03-01T17:09:26;6.65;;;3.55;;
72517;SDS011;60540;51.178;6.738;2023-03-01T17:11:52;7.57;;;4.07;;
72517;SDS011;60540;51.178;6.738;2023-03-01T17:14:19;7.97;;;4.22;;
72517;SDS011;60540;51.178;6.738;2023-03-01T17:16:45;7.97;;;4.15;;
72517;SDS011;60540;51.178;6.738;2023-03-01T17:19:11;7.55;;;3.90;;
72517;SDS011;60540;51.178;6.738;2023-03-01T17:21:38;9.32;;;3.95;;